createdAt,value
2023-05-16T00:03:45.675Z,51.96
2023-05-16T00:06:13.803Z,51.82
2023-05-16T00:08:42.091Z,51.90
2023-05-16T00:11:10.061Z,51.75
2023-05-16T00:13:39.071Z,51.90
2023-05-16T01:02:58.621Z,51.74
2023-05-16T01:05:28.203Z,51.78
2023-05-16T01:07:56.307Z,51.79
2023-05-16T01:10:24.566Z,51.84
2023-05-16T01:12:56.747Z,51.86
2023-05-16T01:48:48.617Z,51.66
2023-05-16T01:51:16.585Z,51.77
2023-05-16T01:53:45.517Z,51.70
2023-05-16T01:56:15.234Z,51.82
2023-05-16T01:58:43.647Z,51.85
2023-05-16T02:50:57.908Z,51.29
2023-05-16T02:53:25.775Z,51.18
2023-05-16T02:55:53.742Z,51.29
2023-05-16T02:58:21.538Z,51.24
2023-05-16T03:50:32.926Z,50.49
2023-05-16T03:53:00.807Z,50.62
2023-05-16T03:55:29.252Z,50.43
2023-05-16T03:57:57.297Z,50.51
2023-05-16T04:47:13.406Z,50.13
2023-05-16T04:49:41.432Z,50.12
2023-05-16T04:52:10.119Z,50.07
2023-05-16T04:54:41.452Z,50.08
2023-05-16T04:57:10.524Z,49.93
2023-05-16T04:59:40.478Z,50.03
2023-05-16T05:02:10.461Z,50.04
2023-05-16T05:04:40.194Z,50.01
2023-05-16T05:07:08.643Z,50.09
2023-05-16T05:09:36.643Z,50.01
2023-05-16T05:12:04.983Z,49.88
2023-05-16T05:14:32.879Z,49.79
2023-05-16T05:17:01.415Z,50.08
2023-05-16T05:19:29.780Z,49.76
2023-05-16T05:22:01.919Z,49.89
2023-05-16T05:24:30.055Z,49.96
2023-05-16T05:27:02.982Z,49.96
2023-05-16T05:29:31.209Z,49.89
2023-05-16T05:31:59.541Z,49.90
2023-05-16T05:34:27.767Z,49.85
2023-05-16T05:36:55.775Z,49.82
2023-05-16T05:39:25.437Z,49.77
2023-05-16T05:41:53.417Z,49.77
2023-05-16T05:44:21.539Z,49.93
2023-05-16T05:46:49.648Z,49.88
2023-05-16T05:49:17.624Z,49.79
2023-05-16T05:51:45.482Z,49.90
2023-05-16T05:54:13.462Z,49.81
2023-05-16T05:56:42.766Z,49.78
2023-05-16T05:59:11.043Z,49.73
2023-05-16T06:01:39.480Z,49.77
2023-05-16T06:04:07.551Z,49.71
2023-05-16T06:06:37.124Z,49.57
2023-05-16T06:09:05.142Z,49.61
2023-05-16T06:11:33.581Z,49.55
2023-05-16T06:14:03.030Z,49.64
2023-05-16T06:16:30.892Z,49.49
2023-05-16T06:18:58.851Z,49.66
2023-05-16T06:21:26.795Z,49.69
2023-05-16T06:23:54.609Z,49.58
2023-05-16T06:26:22.933Z,49.53
2023-05-16T06:28:50.735Z,49.58
2023-05-16T06:31:20.304Z,49.42
2023-05-16T06:33:48.352Z,49.56
2023-05-16T06:36:16.365Z,49.49
2023-05-16T06:38:44.418Z,49.30
2023-05-16T06:41:12.536Z,49.31
2023-05-16T06:43:41.303Z,49.23
2023-05-16T06:46:09.385Z,49.33
2023-05-16T06:48:39.094Z,49.42
2023-05-16T06:51:07.171Z,49.24
2023-05-16T06:53:37.460Z,49.14
2023-05-16T06:56:05.940Z,49.14
2023-05-16T06:58:33.951Z,49.15
2023-05-16T07:01:03.417Z,49.14
2023-05-16T07:03:32.317Z,49.21
2023-05-16T07:06:02.149Z,49.20
2023-05-16T07:08:30.345Z,49.13
2023-05-16T07:11:01.249Z,49.20
2023-05-16T07:13:29.327Z,49.01
2023-05-16T07:15:57.595Z,49.12
2023-05-16T07:18:25.742Z,49.18
2023-05-16T07:20:53.643Z,49.13
2023-05-16T07:23:23.282Z,49.07
2023-05-16T07:25:51.758Z,49.03
2023-05-16T07:28:19.668Z,48.88
2023-05-16T07:30:48.192Z,48.94
2023-05-16T07:33:16.083Z,48.82
2023-05-16T07:35:44.308Z,48.78
2023-05-16T07:38:12.285Z,48.74
2023-05-16T07:40:41.791Z,48.85
2023-05-16T07:43:09.960Z,48.89
2023-05-16T07:45:38.242Z,48.66
2023-05-16T07:48:06.820Z,48.91
2023-05-16T07:50:34.918Z,48.82
2023-05-16T07:53:02.869Z,48.78
2023-05-16T07:55:31.173Z,48.76
2023-05-16T07:58:00.792Z,48.72
2023-05-16T08:00:30.091Z,48.82
2023-05-16T08:02:59.077Z,48.89
2023-05-16T08:05:30.420Z,48.78
2023-05-16T08:07:59.570Z,48.79
2023-05-16T08:10:27.707Z,48.85
2023-05-16T08:12:56.069Z,48.61
2023-05-16T08:15:26.454Z,48.56
2023-05-16T08:17:56.724Z,48.65
2023-05-16T08:20:24.873Z,48.60
2023-05-16T08:22:53.120Z,48.59
2023-05-16T08:25:21.265Z,48.58
2023-05-16T08:27:50.784Z,48.59
2023-05-16T08:30:19.609Z,48.55
2023-05-16T08:32:49.438Z,48.59
2023-05-16T08:35:17.823Z,48.37
2023-05-16T08:37:45.740Z,48.58
2023-05-16T08:40:15.508Z,48.53
2023-05-16T08:42:45.221Z,48.44
2023-05-16T08:45:13.387Z,48.66
2023-05-16T08:47:41.624Z,48.53
2023-05-16T08:50:14.161Z,48.51
2023-05-16T08:52:42.422Z,48.58
2023-05-16T08:55:12.101Z,48.60
2023-05-16T08:57:42.166Z,48.45
2023-05-16T09:00:13.471Z,48.65
2023-05-16T09:02:44.658Z,48.67
2023-05-16T09:05:14.629Z,48.60
2023-05-16T09:07:43.231Z,48.64
2023-05-16T09:10:11.725Z,48.64
2023-05-16T09:12:40.302Z,48.65
2023-05-16T09:15:09.006Z,48.52
2023-05-16T09:17:41.398Z,48.64
2023-05-16T09:20:10.508Z,48.70
2023-05-16T09:22:42.329Z,48.70
2023-05-16T09:25:21.736Z,48.74
2023-05-16T09:27:59.174Z,48.57
2023-05-16T09:30:30.394Z,48.67
2023-05-16T09:32:59.648Z,48.66
2023-05-16T09:38:01.960Z,48.76
2023-05-16T09:40:30.506Z,48.67
2023-05-16T09:43:06.216Z,48.65
2023-05-16T09:45:34.535Z,48.58
2023-05-16T09:48:06.482Z,48.52
2023-05-16T09:50:51.412Z,48.55
2023-05-16T09:53:30.278Z,48.32
2023-05-16T09:56:02.416Z,48.39
2023-05-16T09:58:31.254Z,48.44
2023-05-16T10:00:59.767Z,48.41
2023-05-16T10:03:29.733Z,48.42
2023-05-16T10:05:59.061Z,48.12
2023-05-16T10:08:27.526Z,48.20
2023-05-16T10:10:58.626Z,48.22
2023-05-16T10:13:29.094Z,48.11
2023-05-16T10:15:59.753Z,48.41
2023-05-16T10:18:30.653Z,48.25
2023-05-16T10:20:59.073Z,48.25
2023-05-16T10:23:28.417Z,48.05
2023-05-16T10:25:58.312Z,48.12
2023-05-16T10:28:26.714Z,48.13
2023-05-16T10:31:01.539Z,48.06
2023-05-16T10:33:30.443Z,48.15
2023-05-16T10:36:02.964Z,47.81
2023-05-16T10:38:34.532Z,47.94
2023-05-16T10:41:08.032Z,48.05
2023-05-16T10:43:43.909Z,48.12
2023-05-16T10:46:25.430Z,48.19
2023-05-16T10:48:58.492Z,48.08
2023-05-16T10:51:40.099Z,47.81
2023-05-16T10:54:13.381Z,47.89
2023-05-16T10:56:51.745Z,47.78
2023-05-16T10:59:28.842Z,47.46
2023-05-16T11:01:57.613Z,47.72
2023-05-16T11:04:27.372Z,47.84
2023-05-16T11:07:00.221Z,47.94
2023-05-16T11:09:34.583Z,47.80
2023-05-16T11:12:04.351Z,47.91
2023-05-16T11:14:37.540Z,47.84
2023-05-16T11:17:08.855Z,47.83
2023-05-16T11:19:37.393Z,47.67
2023-05-16T11:22:18.063Z,47.81
2023-05-16T11:24:56.260Z,47.92
2023-05-16T11:27:29.900Z,47.79
2023-05-16T11:30:03.768Z,47.92
2023-05-16T11:32:32.418Z,47.85
2023-05-16T11:35:00.766Z,48.03
2023-05-16T11:37:29.760Z,47.86
2023-05-16T11:40:00.315Z,48.01
2023-05-16T11:42:32.329Z,47.75
2023-05-16T11:45:05.395Z,47.73
2023-05-16T11:47:33.447Z,47.74
2023-05-16T11:50:04.213Z,47.68
2023-05-16T11:52:33.141Z,47.93
2023-05-16T11:55:04.652Z,47.75
2023-05-16T11:57:34.255Z,47.62
2023-05-16T12:00:04.796Z,47.66
2023-05-16T12:02:33.610Z,47.57
2023-05-16T12:05:04.559Z,47.70
2023-05-16T12:07:32.752Z,47.76
2023-05-16T12:10:01.073Z,47.68
2023-05-16T12:12:30.325Z,47.59
2023-05-16T12:14:59.975Z,47.53
2023-05-16T12:17:27.992Z,47.60
2023-05-16T12:19:56.114Z,47.61
2023-05-16T12:22:24.433Z,47.49
2023-05-16T12:24:52.594Z,47.45
2023-05-16T12:27:23.360Z,47.32
2023-05-16T12:29:54.772Z,47.07
2023-05-16T12:32:24.254Z,47.21
2023-05-16T12:34:53.880Z,47.21
2023-05-16T12:37:26.518Z,47.23
2023-05-16T12:39:54.759Z,47.19
2023-05-16T12:42:22.921Z,47.01
2023-05-16T12:44:50.884Z,47.09
2023-05-16T12:47:19.078Z,47.14
2023-05-16T12:49:50.346Z,47.08
2023-05-16T12:52:21.662Z,47.07
2023-05-16T12:54:49.612Z,47.07
2023-05-16T12:57:21.890Z,46.99
2023-05-16T13:00:32.990Z,47.09
2023-05-16T13:03:01.804Z,46.92
2023-05-16T13:05:35.142Z,46.97
2023-05-16T13:08:05.535Z,47.10
2023-05-16T13:10:34.077Z,47.02
2023-05-16T13:13:19.246Z,47.08
2023-05-16T13:15:55.767Z,47.11
2023-05-16T13:18:24.066Z,47.03
2023-05-16T13:20:58.718Z,46.92
2023-05-16T13:23:27.297Z,46.91
2023-05-16T13:26:00.935Z,46.73
2023-05-16T13:28:28.993Z,47.11
2023-05-16T13:30:59.631Z,47.18
2023-05-16T13:33:28.882Z,46.83
2023-05-16T13:35:58.513Z,46.68
2023-05-16T13:38:26.817Z,46.63
2023-05-16T13:40:55.197Z,47.01
2023-05-16T13:43:24.665Z,46.80
2023-05-16T13:45:55.188Z,46.72
2023-05-16T13:48:26.642Z,46.61
2023-05-16T13:50:56.143Z,46.25
2023-05-16T13:53:26.255Z,46.47
2023-05-16T13:55:54.565Z,46.46
2023-05-16T13:58:22.897Z,46.25
2023-05-16T14:00:51.450Z,46.36
2023-05-16T14:03:20.755Z,46.56
2023-05-16T14:05:51.979Z,46.22
2023-05-16T14:08:19.965Z,46.08
2023-05-16T14:10:49.502Z,46.24
2023-05-16T14:13:59.792Z,46.34
2023-05-16T14:16:33.774Z,46.44
2023-05-16T14:19:02.213Z,45.94
2023-05-16T14:21:31.116Z,46.30
2023-05-16T14:24:02.153Z,46.28
2023-05-16T14:26:32.594Z,46.25
2023-05-16T14:32:40.989Z,46.04
2023-05-16T14:35:31.656Z,46.07
2023-05-16T14:38:05.315Z,46.27
2023-05-16T14:40:34.373Z,45.81
2023-05-16T14:43:05.314Z,46.04
2023-05-16T14:45:33.600Z,45.91
2023-05-16T14:48:02.406Z,45.68
2023-05-16T14:50:30.761Z,45.90
2023-05-16T14:53:03.187Z,45.73
2023-05-16T14:55:33.236Z,45.78
2023-05-16T14:58:34.774Z,45.91
2023-05-16T15:01:10.305Z,45.47
2023-05-16T15:03:53.586Z,45.25
2023-05-16T15:06:23.758Z,45.50
2023-05-16T15:08:52.060Z,44.80
2023-05-16T15:11:22.109Z,44.96
2023-05-16T15:13:54.157Z,44.76
2023-05-16T15:16:25.240Z,44.52
2023-05-16T15:18:53.859Z,44.53
2023-05-16T15:21:27.918Z,44.55
2023-05-16T15:24:02.717Z,44.20
2023-05-16T15:26:38.232Z,44.26
2023-05-16T15:29:09.269Z,43.74
2023-05-16T15:31:39.238Z,44.10
2023-05-16T15:34:08.941Z,43.98
2023-05-16T15:36:37.346Z,43.63
2023-05-16T15:39:05.847Z,43.79
2023-05-16T15:41:56.999Z,43.71
2023-05-16T15:44:24.247Z,43.60
2023-05-16T15:46:53.947Z,43.60
2023-05-16T15:49:22.120Z,44.00
2023-05-16T15:51:50.238Z,43.77
2023-05-16T15:54:18.369Z,43.95
2023-05-16T15:56:46.336Z,43.56
2023-05-16T15:59:14.302Z,44.02
2023-05-16T16:01:42.393Z,43.90
2023-05-16T16:04:11.965Z,43.66
2023-05-16T16:06:40.213Z,43.10
2023-05-16T16:09:08.325Z,43.19
2023-05-16T16:11:41.277Z,43.33
2023-05-16T16:14:11.259Z,42.89
2023-05-16T16:17:05.156Z,43.07
2023-05-16T16:19:40.498Z,42.89
2023-05-16T16:22:08.584Z,43.30
2023-05-16T16:24:38.784Z,43.06
2023-05-16T16:27:12.662Z,42.98
2023-05-16T16:29:43.353Z,42.87
2023-05-16T16:32:20.286Z,42.67
2023-05-16T16:34:58.432Z,42.40
2023-05-16T16:37:27.136Z,42.34
2023-05-16T16:39:56.155Z,42.75
2023-05-16T16:42:58.701Z,42.12
2023-05-16T16:45:29.533Z,42.23
2023-05-16T16:47:58.222Z,42.16
2023-05-16T16:50:27.724Z,42.40
2023-05-16T16:52:56.096Z,42.63
2023-05-16T16:55:24.189Z,42.31
2023-05-16T16:57:52.452Z,42.27
2023-05-16T17:00:21.009Z,42.21
2023-05-16T17:02:50.977Z,41.82
2023-05-16T17:05:19.411Z,42.00
2023-05-16T17:07:49.057Z,41.79
2023-05-16T17:10:17.104Z,41.86
2023-05-16T17:12:49.368Z,41.90
2023-05-16T17:15:17.854Z,42.15
2023-05-16T17:17:50.635Z,41.85
2023-05-16T17:20:27.123Z,42.04
2023-05-16T17:22:58.132Z,41.87
2023-05-16T17:25:26.654Z,42.17
2023-05-16T17:27:55.044Z,41.92
2023-05-16T17:30:25.026Z,42.37
2023-05-16T17:33:09.919Z,42.16
2023-05-16T17:35:50.688Z,42.09
2023-05-16T17:41:55.266Z,42.28
2023-05-16T17:44:23.603Z,42.22
2023-05-16T17:47:03.263Z,41.88
2023-05-16T17:49:31.736Z,42.24
2023-05-16T17:52:00.869Z,42.11
2023-05-16T17:54:39.781Z,41.79
2023-05-16T17:57:12.538Z,42.07
2023-05-16T17:59:41.617Z,41.81
2023-05-16T18:02:10.512Z,41.72
2023-05-16T18:04:42.208Z,41.45
2023-05-16T18:07:13.431Z,41.94
2023-05-16T18:09:46.252Z,42.05
2023-05-16T18:12:15.124Z,42.02
2023-05-16T18:14:47.213Z,41.78
2023-05-16T18:17:15.577Z,41.85
2023-05-16T18:19:45.582Z,41.89
2023-05-16T18:22:14.175Z,42.28
2023-05-16T18:24:45.109Z,42.31
2023-05-16T18:27:13.768Z,42.08
2023-05-16T18:29:42.464Z,42.29
2023-05-16T18:32:11.116Z,42.16
2023-05-16T18:34:42.303Z,42.05
2023-05-16T18:37:10.601Z,42.22
2023-05-16T18:39:41.733Z,42.36
2023-05-16T18:42:12.986Z,42.52
2023-05-16T18:44:41.591Z,42.19
2023-05-16T18:47:11.031Z,42.47
2023-05-16T18:49:46.581Z,42.66
2023-05-16T18:52:23.657Z,42.60
2023-05-16T18:55:03.441Z,42.72
2023-05-16T18:57:33.350Z,42.78
2023-05-16T19:00:07.729Z,42.53
2023-05-16T19:02:42.115Z,42.62
2023-05-16T19:06:00.155Z,42.70
2023-05-16T19:12:23.030Z,42.96
2023-05-16T19:15:09.127Z,42.97
2023-05-16T19:18:03.529Z,42.98
2023-05-16T19:21:22.500Z,43.00
2023-05-16T19:24:20.461Z,43.20
2023-05-16T19:26:53.002Z,43.13
2023-05-16T19:29:23.551Z,43.16
2023-05-16T19:32:04.197Z,43.07
2023-05-16T19:34:54.950Z,43.14
2023-05-16T19:37:46.976Z,43.13
2023-05-16T19:40:32.866Z,43.06
2023-05-16T19:43:09.505Z,43.02
2023-05-16T19:45:39.964Z,42.64
2023-05-16T19:48:35.218Z,42.85
2023-05-16T19:51:41.931Z,42.65
2023-05-16T19:54:24.213Z,42.63
2023-05-16T19:56:55.794Z,42.38
2023-05-16T19:59:33.299Z,42.52
2023-05-16T20:02:01.630Z,42.48
2023-05-16T20:04:36.308Z,42.60
2023-05-16T20:07:09.577Z,42.56
2023-05-16T20:09:37.998Z,42.57
2023-05-16T20:12:06.584Z,42.52
2023-05-16T20:14:42.263Z,42.88
2023-05-16T20:17:13.966Z,42.70
2023-05-16T20:19:44.819Z,42.63
2023-05-16T20:22:13.489Z,42.68
2023-05-16T20:24:42.081Z,42.60
2023-05-16T20:27:13.827Z,42.67
2023-05-16T20:29:42.300Z,42.58
2023-05-16T20:32:14.663Z,42.55
2023-05-16T20:34:47.573Z,42.65
2023-05-16T20:37:15.887Z,42.83
2023-05-16T20:39:45.091Z,42.75
2023-05-16T20:42:19.305Z,42.76
2023-05-16T20:44:50.492Z,42.75
2023-05-16T20:47:19.131Z,42.89
2023-05-16T20:49:49.567Z,42.80
2023-05-16T20:52:24.391Z,42.92
2023-05-16T20:54:52.654Z,42.98
2023-05-16T20:57:22.960Z,42.90
2023-05-16T20:59:51.646Z,42.89
2023-05-16T21:02:20.052Z,42.89
2023-05-16T21:04:53.072Z,42.72
2023-05-16T21:07:47.839Z,42.87
2023-05-16T21:10:26.722Z,42.69
2023-05-16T21:12:54.624Z,42.99
2023-05-16T21:15:28.518Z,42.97
2023-05-16T21:18:50.599Z,42.76
2023-05-16T21:22:03.863Z,42.94
2023-05-16T21:24:37.555Z,42.87
2023-05-16T21:27:06.240Z,43.06
2023-05-16T21:29:40.320Z,42.96
2023-05-16T21:32:09.574Z,43.20
2023-05-16T21:34:44.525Z,43.18
2023-05-16T21:37:15.176Z,43.29
2023-05-16T21:39:45.836Z,43.32
2023-05-16T21:42:18.693Z,43.39
2023-05-16T21:44:52.060Z,43.41
2023-05-16T21:47:22.517Z,43.51
2023-05-16T21:50:05.142Z,43.56
2023-05-16T21:52:58.469Z,43.60
2023-05-16T21:55:33.703Z,43.67
2023-05-16T21:58:05.125Z,43.68
2023-05-16T22:00:38.059Z,43.89
2023-05-16T22:03:10.944Z,43.90
2023-05-16T22:05:40.214Z,43.68
2023-05-16T22:08:10.783Z,44.03
2023-05-16T22:10:55.903Z,43.95
2023-05-16T22:13:34.272Z,44.16
2023-05-16T22:16:06.130Z,44.08
2023-05-16T22:18:34.939Z,44.07
2023-05-16T22:21:05.416Z,44.16
2023-05-16T22:23:34.580Z,44.22
2023-05-16T22:26:04.818Z,44.14
2023-05-16T22:28:33.588Z,44.06
2023-05-16T22:31:05.015Z,44.12
2023-05-16T22:33:33.578Z,44.20
2023-05-16T22:36:03.160Z,44.12
2023-05-16T22:38:34.222Z,44.09
2023-05-16T22:41:04.375Z,44.15
2023-05-16T22:43:32.588Z,44.14
2023-05-16T22:46:02.851Z,44.17
2023-05-16T22:48:31.739Z,44.08
2023-05-16T22:51:00.290Z,44.02
2023-05-16T22:53:31.493Z,44.06
2023-05-16T22:55:59.753Z,43.92
2023-05-16T22:58:29.813Z,43.94
2023-05-16T23:29:31.804Z,43.69
